sensor_id;sensor_type;location;lat;lon;timestamp;P1;durP1;ratioP1;P2;durP2;ratioP2
36185;SDS011;22228;53.222;7.446;2023-08-06T00:00:28;19.57;;;17.47;;
36185;SDS011;22228;53.222;7.446;2023-08-06T00:02:48;18.57;;;16.73;;
36185;SDS011;22228;53.222;7.446;2023-08-06T00:05:09;18.90;;;17.00;;
36185;SDS011;22228;53.222;7.446;2023-08-06T00:07:30;19.60;;;17.60;;
36185;SDS011;22228;53.222;7.446;2023-08-06T00:09:50;17.13;;;15.37;;
36185;SDS011;22228;53.222;7.446;2023-08-06T00:12:12;18.30;;;16.53;;
36185;SDS011;22228;53.222;7.446;2023-08-06T00:14:33;19.33;;;17.33;;
36185;SDS011;22228;53.222;7.446;2023-08-06T03:01:57;28.27;;;23.00;;
36185;SDS011;22228;53.222;7.446;2023-08-06T03:04:26;24.67;;;21.83;;
36185;SDS011;22228;53.222;7.446;2023-08-06T03:06:54;25.87;;;20.90;;
36185;SDS011;22228;53.222;7.446;2023-08-06T03:09:20;24.77;;;20.53;;
36185;SDS011;22228;53.222;7.446;2023-08-06T03:11:42;24.70;;;21.37;;
36185;SDS011;22228;53.222;7.446;2023-08-06T03:14:06;24.57;;;21.93;;
36185;SDS011;22228;53.222;7.446;2023-08-06T03:16:27;23.27;;;20.47;;
36185;SDS011;22228;53.222;7.446;2023-08-06T03:18:49;24.60;;;20.60;;
36185;SDS011;22228;53.222;7.446;2023-08-06T03:21:10;25.63;;;21.23;;
36185;SDS011;22228;53.222;7.446;2023-08-06T03:23:31;26.33;;;21.40;;
36185;SDS011;22228;53.222;7.446;2023-08-06T03:25:51;25.60;;;21.53;;
36185;SDS011;22228;53.222;7.446;2023-08-06T03:28:12;23.00;;;20.50;;
36185;SDS011;22228;53.222;7.446;2023-08-06T03:30:34;22.20;;;19.90;;
36185;SDS011;22228;53.222;7.446;2023-08-06T03:32:55;22.20;;;19.83;;
36185;SDS011;22228;53.222;7.446;2023-08-06T03:35:17;23.63;;;20.47;;
36185;SDS011;22228;53.222;7.446;2023-08-06T03:37:38;22.07;;;19.67;;
36185;SDS011;22228;53.222;7.446;2023-08-06T03:39:58;22.37;;;20.07;;
36185;SDS011;22228;53.222;7.446;2023-08-06T03:42:19;23.20;;;19.50;;
36185;SDS011;22228;53.222;7.446;2023-08-06T03:44:40;22.53;;;20.10;;
36185;SDS011;22228;53.222;7.446;2023-08-06T03:47:02;24.20;;;21.50;;
36185;SDS011;22228;53.222;7.446;2023-08-06T03:49:23;20.83;;;18.63;;
36185;SDS011;22228;53.222;7.446;2023-08-06T03:51:44;22.87;;;19.80;;
36185;SDS011;22228;53.222;7.446;2023-08-06T03:54:05;22.97;;;20.50;;
36185;SDS011;22228;53.222;7.446;2023-08-06T03:56:26;22.60;;;20.27;;
36185;SDS011;22228;53.222;7.446;2023-08-06T03:58:46;26.10;;;21.83;;
36185;SDS011;22228;53.222;7.446;2023-08-06T04:01:07;26.30;;;21.03;;
36185;SDS011;22228;53.222;7.446;2023-08-06T04:03:34;27.20;;;22.90;;
36185;SDS011;22228;53.222;7.446;2023-08-06T04:05:55;27.10;;;23.13;;
36185;SDS011;22228;53.222;7.446;2023-08-06T04:08:16;26.13;;;22.73;;
36185;SDS011;22228;53.222;7.446;2023-08-06T04:10:37;26.83;;;23.07;;
36185;SDS011;22228;53.222;7.446;2023-08-06T04:12:58;27.43;;;22.87;;
36185;SDS011;22228;53.222;7.446;2023-08-06T04:15:18;24.10;;;21.50;;
36185;SDS011;22228;53.222;7.446;2023-08-06T04:17:39;27.77;;;22.73;;
36185;SDS011;22228;53.222;7.446;2023-08-06T04:19:59;23.83;;;20.80;;
36185;SDS011;22228;53.222;7.446;2023-08-06T04:22:21;28.23;;;22.73;;
36185;SDS011;22228;53.222;7.446;2023-08-06T04:24:43;23.00;;;20.60;;
36185;SDS011;22228;53.222;7.446;2023-08-06T04:27:04;24.13;;;21.57;;
36185;SDS011;22228;53.222;7.446;2023-08-06T04:29:24;25.60;;;21.33;;
36185;SDS011;22228;53.222;7.446;2023-08-06T04:31:45;27.83;;;22.70;;
36185;SDS011;22228;53.222;7.446;2023-08-06T04:34:06;23.53;;;20.87;;
36185;SDS011;22228;53.222;7.446;2023-08-06T04:36:29;24.63;;;21.20;;
36185;SDS011;22228;53.222;7.446;2023-08-06T04:38:50;22.97;;;20.43;;
36185;SDS011;22228;53.222;7.446;2023-08-06T04:41:12;23.20;;;20.47;;
36185;SDS011;22228;53.222;7.446;2023-08-06T04:43:33;25.50;;;20.50;;
36185;SDS011;22228;53.222;7.446;2023-08-06T04:45:53;24.93;;;21.37;;
36185;SDS011;22228;53.222;7.446;2023-08-06T04:48:14;25.37;;;21.43;;
36185;SDS011;22228;53.222;7.446;2023-08-06T04:50:35;24.43;;;20.53;;
36185;SDS011;22228;53.222;7.446;2023-08-06T04:52:55;23.13;;;20.07;;
36185;SDS011;22228;53.222;7.446;2023-08-06T04:55:16;23.97;;;19.60;;
36185;SDS011;22228;53.222;7.446;2023-08-06T04:57:38;23.67;;;19.70;;
36185;SDS011;22228;53.222;7.446;2023-08-06T04:59:58;24.63;;;21.50;;
36185;SDS011;22228;53.222;7.446;2023-08-06T05:02:18;24.23;;;19.90;;
36185;SDS011;22228;53.222;7.446;2023-08-06T05:04:39;23.10;;;19.97;;
36185;SDS011;22228;53.222;7.446;2023-08-06T05:06:59;24.17;;;18.60;;
36185;SDS011;22228;53.222;7.446;2023-08-06T05:09:20;19.63;;;17.57;;
36185;SDS011;22228;53.222;7.446;2023-08-06T05:11:41;19.67;;;17.23;;
36185;SDS011;22228;53.222;7.446;2023-08-06T05:14:02;21.17;;;18.27;;
36185;SDS011;22228;53.222;7.446;2023-08-06T05:16:23;19.67;;;17.57;;
36185;SDS011;22228;53.222;7.446;2023-08-06T05:18:43;19.20;;;17.20;;
36185;SDS011;22228;53.222;7.446;2023-08-06T05:21:04;18.50;;;16.50;;
36185;SDS011;22228;53.222;7.446;2023-08-06T05:23:24;17.20;;;15.53;;
36185;SDS011;22228;53.222;7.446;2023-08-06T05:25:45;17.17;;;15.43;;
36185;SDS011;22228;53.222;7.446;2023-08-06T05:28:05;17.77;;;15.00;;
36185;SDS011;22228;53.222;7.446;2023-08-06T05:30:27;18.27;;;15.37;;
36185;SDS011;22228;53.222;7.446;2023-08-06T05:32:48;17.00;;;15.20;;
36185;SDS011;22228;53.222;7.446;2023-08-06T05:35:08;16.27;;;14.57;;
36185;SDS011;22228;53.222;7.446;2023-08-06T05:37:29;16.37;;;14.77;;
36185;SDS011;22228;53.222;7.446;2023-08-06T05:39:49;15.77;;;14.20;;
36185;SDS011;22228;53.222;7.446;2023-08-06T05:42:09;16.67;;;15.07;;
36185;SDS011;22228;53.222;7.446;2023-08-06T05:44:32;17.27;;;15.57;;
36185;SDS011;22228;53.222;7.446;2023-08-06T05:46:54;17.20;;;15.30;;
36185;SDS011;22228;53.222;7.446;2023-08-06T05:49:14;16.13;;;14.53;;
36185;SDS011;22228;53.222;7.446;2023-08-06T05:51:35;15.47;;;14.07;;
36185;SDS011;22228;53.222;7.446;2023-08-06T05:53:55;15.23;;;13.67;;
36185;SDS011;22228;53.222;7.446;2023-08-06T05:56:16;14.60;;;13.30;;
36185;SDS011;22228;53.222;7.446;2023-08-06T05:58:36;15.83;;;14.33;;
36185;SDS011;22228;53.222;7.446;2023-08-06T06:00:57;14.27;;;12.87;;
36185;SDS011;22228;53.222;7.446;2023-08-06T06:03:19;13.73;;;12.47;;
36185;SDS011;22228;53.222;7.446;2023-08-06T06:05:39;13.50;;;12.10;;
36185;SDS011;22228;53.222;7.446;2023-08-06T06:08:00;13.50;;;12.30;;
36185;SDS011;22228;53.222;7.446;2023-08-06T06:10:20;12.60;;;11.50;;
36185;SDS011;22228;53.222;7.446;2023-08-06T06:12:41;12.87;;;11.67;;
36185;SDS011;22228;53.222;7.446;2023-08-06T06:15:02;13.17;;;11.97;;
36185;SDS011;22228;53.222;7.446;2023-08-06T06:17:23;12.60;;;11.47;;
36185;SDS011;22228;53.222;7.446;2023-08-06T06:19:45;11.83;;;10.63;;
36185;SDS011;22228;53.222;7.446;2023-08-06T06:22:06;12.10;;;11.00;;
36185;SDS011;22228;53.222;7.446;2023-08-06T06:24:26;11.77;;;10.67;;
36185;SDS011;22228;53.222;7.446;2023-08-06T06:26:47;12.03;;;11.03;;
36185;SDS011;22228;53.222;7.446;2023-08-06T06:29:07;12.13;;;10.97;;
36185;SDS011;22228;53.222;7.446;2023-08-06T06:31:28;11.67;;;10.57;;
36185;SDS011;22228;53.222;7.446;2023-08-06T06:33:49;11.77;;;10.77;;
36185;SDS011;22228;53.222;7.446;2023-08-06T06:36:13;10.70;;;9.90;;
36185;SDS011;22228;53.222;7.446;2023-08-06T06:38:34;11.70;;;9.97;;
36185;SDS011;22228;53.222;7.446;2023-08-06T06:40:54;10.47;;;9.57;;
36185;SDS011;22228;53.222;7.446;2023-08-06T06:43:15;9.73;;;9.03;;
36185;SDS011;22228;53.222;7.446;2023-08-06T06:45:36;8.93;;;8.33;;
36185;SDS011;22228;53.222;7.446;2023-08-06T06:47:56;8.60;;;7.90;;
36185;SDS011;22228;53.222;7.446;2023-08-06T06:50:18;7.63;;;7.03;;
36185;SDS011;22228;53.222;7.446;2023-08-06T06:52:41;7.27;;;6.77;;
36185;SDS011;22228;53.222;7.446;2023-08-06T06:55:02;7.80;;;7.30;;
36185;SDS011;22228;53.222;7.446;2023-08-06T06:57:22;7.40;;;6.90;;
36185;SDS011;22228;53.222;7.446;2023-08-06T06:59:43;6.63;;;6.23;;
36185;SDS011;22228;53.222;7.446;2023-08-06T07:02:04;6.77;;;6.37;;
36185;SDS011;22228;53.222;7.446;2023-08-06T07:04:25;6.97;;;6.47;;
36185;SDS011;22228;53.222;7.446;2023-08-06T07:06:46;6.10;;;5.67;;
36185;SDS011;22228;53.222;7.446;2023-08-06T07:09:08;6.90;;;6.40;;
36185;SDS011;22228;53.222;7.446;2023-08-06T07:11:29;5.63;;;5.33;;
36185;SDS011;22228;53.222;7.446;2023-08-06T07:13:50;5.10;;;4.73;;
36185;SDS011;22228;53.222;7.446;2023-08-06T07:16:16;5.73;;;5.37;;
36185;SDS011;22228;53.222;7.446;2023-08-06T07:18:37;5.23;;;4.90;;
36185;SDS011;22228;53.222;7.446;2023-08-06T07:20:57;5.07;;;4.77;;
36185;SDS011;22228;53.222;7.446;2023-08-06T07:23:19;4.73;;;4.43;;
36185;SDS011;22228;53.222;7.446;2023-08-06T07:25:42;4.80;;;4.50;;
36185;SDS011;22228;53.222;7.446;2023-08-06T07:28:03;4.67;;;4.37;;
36185;SDS011;22228;53.222;7.446;2023-08-06T07:30:23;4.17;;;3.90;;
36185;SDS011;22228;53.222;7.446;2023-08-06T07:32:44;4.87;;;4.57;;
36185;SDS011;22228;53.222;7.446;2023-08-06T07:35:05;3.80;;;3.50;;
36185;SDS011;22228;53.222;7.446;2023-08-06T07:37:28;4.63;;;4.33;;
36185;SDS011;22228;53.222;7.446;2023-08-06T07:39:48;4.50;;;4.20;;
36185;SDS011;22228;53.222;7.446;2023-08-06T07:42:11;4.83;;;4.53;;
36185;SDS011;22228;53.222;7.446;2023-08-06T07:44:31;4.43;;;4.13;;
36185;SDS011;22228;53.222;7.446;2023-08-06T07:46:52;3.80;;;3.60;;
36185;SDS011;22228;53.222;7.446;2023-08-06T07:49:12;4.33;;;4.03;;
36185;SDS011;22228;53.222;7.446;2023-08-06T07:51:33;3.70;;;3.50;;
36185;SDS011;22228;53.222;7.446;2023-08-06T07:53:53;3.97;;;3.77;;
36185;SDS011;22228;53.222;7.446;2023-08-06T07:56:14;3.90;;;3.70;;
36185;SDS011;22228;53.222;7.446;2023-08-06T07:58:36;5.10;;;4.80;;
36185;SDS011;22228;53.222;7.446;2023-08-06T08:00:57;4.43;;;4.03;;
36185;SDS011;22228;53.222;7.446;2023-08-06T08:03:17;3.27;;;3.07;;
36185;SDS011;22228;53.222;7.446;2023-08-06T08:05:38;4.37;;;4.17;;
36185;SDS011;22228;53.222;7.446;2023-08-06T08:07:58;4.57;;;4.17;;
36185;SDS011;22228;53.222;7.446;2023-08-06T08:10:19;3.90;;;3.60;;
36185;SDS011;22228;53.222;7.446;2023-08-06T08:12:39;4.20;;;4.00;;
36185;SDS011;22228;53.222;7.446;2023-08-06T08:15:03;4.33;;;4.03;;
36185;SDS011;22228;53.222;7.446;2023-08-06T08:17:24;5.53;;;5.00;;
36185;SDS011;22228;53.222;7.446;2023-08-06T08:19:44;3.80;;;3.50;;
36185;SDS011;22228;53.222;7.446;2023-08-06T08:22:05;3.90;;;3.60;;
36185;SDS011;22228;53.222;7.446;2023-08-06T08:24:25;4.30;;;4.03;;
36185;SDS011;22228;53.222;7.446;2023-08-06T08:26:46;4.30;;;4.00;;
36185;SDS011;22228;53.222;7.446;2023-08-06T08:29:06;3.20;;;3.00;;
36185;SDS011;22228;53.222;7.446;2023-08-06T08:31:28;3.80;;;3.60;;
36185;SDS011;22228;53.222;7.446;2023-08-06T08:33:48;4.13;;;3.83;;
36185;SDS011;22228;53.222;7.446;2023-08-06T08:36:09;4.03;;;3.73;;
36185;SDS011;22228;53.222;7.446;2023-08-06T08:38:30;3.67;;;3.07;;
36185;SDS011;22228;53.222;7.446;2023-08-06T08:40:51;3.70;;;3.50;;
36185;SDS011;22228;53.222;7.446;2023-08-06T08:43:13;3.60;;;3.37;;
36185;SDS011;22228;53.222;7.446;2023-08-06T08:45:34;3.60;;;3.50;;
36185;SDS011;22228;53.222;7.446;2023-08-06T08:47:59;3.53;;;3.37;;
36185;SDS011;22228;53.222;7.446;2023-08-06T08:50:20;4.30;;;3.90;;
36185;SDS011;22228;53.222;7.446;2023-08-06T08:52:41;3.13;;;2.90;;
36185;SDS011;22228;53.222;7.446;2023-08-06T08:55:04;3.97;;;3.77;;
36185;SDS011;22228;53.222;7.446;2023-08-06T08:57:26;3.53;;;3.27;;
36185;SDS011;22228;53.222;7.446;2023-08-06T08:59:47;3.83;;;3.63;;
36185;SDS011;22228;53.222;7.446;2023-08-06T09:02:07;3.97;;;3.77;;
36185;SDS011;22228;53.222;7.446;2023-08-06T09:04:32;5.03;;;4.63;;
36185;SDS011;22228;53.222;7.446;2023-08-06T09:06:54;5.30;;;4.90;;
36185;SDS011;22228;53.222;7.446;2023-08-06T09:09:17;4.37;;;4.17;;
36185;SDS011;22228;53.222;7.446;2023-08-06T09:11:42;4.70;;;4.43;;
36185;SDS011;22228;53.222;7.446;2023-08-06T09:14:03;4.63;;;4.33;;
36185;SDS011;22228;53.222;7.446;2023-08-06T09:16:25;3.73;;;3.37;;
36185;SDS011;22228;53.222;7.446;2023-08-06T09:18:46;3.27;;;3.07;;
36185;SDS011;22228;53.222;7.446;2023-08-06T09:21:08;3.40;;;3.10;;
36185;SDS011;22228;53.222;7.446;2023-08-06T09:23:33;2.60;;;2.50;;
36185;SDS011;22228;53.222;7.446;2023-08-06T09:25:54;2.13;;;2.03;;
36185;SDS011;22228;53.222;7.446;2023-08-06T09:28:15;2.37;;;2.27;;
36185;SDS011;22228;53.222;7.446;2023-08-06T09:30:36;3.50;;;2.10;;
36185;SDS011;22228;53.222;7.446;2023-08-06T09:32:57;2.73;;;1.87;;
36185;SDS011;22228;53.222;7.446;2023-08-06T09:35:18;1.23;;;1.13;;
36185;SDS011;22228;53.222;7.446;2023-08-06T09:37:40;1.60;;;1.50;;
36185;SDS011;22228;53.222;7.446;2023-08-06T09:40:00;1.50;;;1.40;;
36185;SDS011;22228;53.222;7.446;2023-08-06T09:42:21;1.40;;;1.30;;
36185;SDS011;22228;53.222;7.446;2023-08-06T09:44:41;1.30;;;1.13;;
36185;SDS011;22228;53.222;7.446;2023-08-06T09:47:02;1.70;;;1.60;;
36185;SDS011;22228;53.222;7.446;2023-08-06T09:49:25;1.80;;;1.20;;
36185;SDS011;22228;53.222;7.446;2023-08-06T09:51:46;1.13;;;0.93;;
36185;SDS011;22228;53.222;7.446;2023-08-06T09:54:10;1.00;;;1.00;;
36185;SDS011;22228;53.222;7.446;2023-08-06T09:56:32;1.50;;;0.90;;
36185;SDS011;22228;53.222;7.446;2023-08-06T09:58:56;0.80;;;0.80;;
36185;SDS011;22228;53.222;7.446;2023-08-06T10:01:17;1.00;;;1.00;;
36185;SDS011;22228;53.222;7.446;2023-08-06T10:03:38;1.07;;;1.03;;
36185;SDS011;22228;53.222;7.446;2023-08-06T10:05:59;0.87;;;0.87;;
36185;SDS011;22228;53.222;7.446;2023-08-06T10:08:24;0.90;;;0.90;;
36185;SDS011;22228;53.222;7.446;2023-08-06T10:10:47;1.40;;;1.30;;
36185;SDS011;22228;53.222;7.446;2023-08-06T10:13:08;2.30;;;1.07;;
36185;SDS011;22228;53.222;7.446;2023-08-06T10:15:31;1.00;;;1.00;;
36185;SDS011;22228;53.222;7.446;2023-08-06T10:17:53;1.17;;;1.10;;
36185;SDS011;22228;53.222;7.446;2023-08-06T10:20:16;1.00;;;1.00;;
36185;SDS011;22228;53.222;7.446;2023-08-06T10:22:38;1.20;;;1.07;;
36185;SDS011;22228;53.222;7.446;2023-08-06T10:25:03;1.40;;;1.00;;
36185;SDS011;22228;53.222;7.446;2023-08-06T10:27:29;0.90;;;0.90;;
36185;SDS011;22228;53.222;7.446;2023-08-06T10:29:51;1.13;;;1.00;;
36185;SDS011;22228;53.222;7.446;2023-08-06T10:32:12;3.53;;;3.33;;
36185;SDS011;22228;53.222;7.446;2023-08-06T10:37:15;1.00;;;1.00;;
36185;SDS011;22228;53.222;7.446;2023-08-06T10:39:36;0.97;;;0.90;;
36185;SDS011;22228;53.222;7.446;2023-08-06T10:41:56;0.83;;;0.80;;
36185;SDS011;22228;53.222;7.446;2023-08-06T10:44:18;0.83;;;0.83;;
36185;SDS011;22228;53.222;7.446;2023-08-06T10:46:39;1.30;;;0.97;;
36185;SDS011;22228;53.222;7.446;2023-08-06T10:48:59;0.90;;;0.90;;
36185;SDS011;22228;53.222;7.446;2023-08-06T10:51:20;1.13;;;0.80;;
36185;SDS011;22228;53.222;7.446;2023-08-06T10:53:41;0.97;;;0.80;;
36185;SDS011;22228;53.222;7.446;2023-08-06T10:56:11;0.80;;;0.80;;
36185;SDS011;22228;53.222;7.446;2023-08-06T10:58:32;0.80;;;0.80;;
36185;SDS011;22228;53.222;7.446;2023-08-06T11:00:54;1.57;;;0.90;;
36185;SDS011;22228;53.222;7.446;2023-08-06T11:03:16;0.60;;;0.60;;
36185;SDS011;22228;53.222;7.446;2023-08-06T11:05:37;1.43;;;0.70;;
36185;SDS011;22228;53.222;7.446;2023-08-06T11:07:58;0.80;;;0.80;;
36185;SDS011;22228;53.222;7.446;2023-08-06T11:10:18;0.60;;;0.60;;
36185;SDS011;22228;53.222;7.446;2023-08-06T11:12:39;2.00;;;1.07;;
36185;SDS011;22228;53.222;7.446;2023-08-06T11:15:00;0.60;;;0.60;;
36185;SDS011;22228;53.222;7.446;2023-08-06T11:17:22;0.60;;;0.60;;
36185;SDS011;22228;53.222;7.446;2023-08-06T11:19:42;21.13;;;7.23;;
36185;SDS011;22228;53.222;7.446;2023-08-06T11:22:03;1.40;;;0.70;;
36185;SDS011;22228;53.222;7.446;2023-08-06T11:24:25;0.73;;;0.70;;
36185;SDS011;22228;53.222;7.446;2023-08-06T11:26:45;0.70;;;0.70;;
36185;SDS011;22228;53.222;7.446;2023-08-06T11:29:06;0.60;;;0.60;;
36185;SDS011;22228;53.222;7.446;2023-08-06T11:31:26;0.80;;;0.80;;
36185;SDS011;22228;53.222;7.446;2023-08-06T11:33:48;0.80;;;0.80;;
36185;SDS011;22228;53.222;7.446;2023-08-06T11:36:10;1.23;;;0.80;;
36185;SDS011;22228;53.222;7.446;2023-08-06T11:38:30;0.93;;;0.73;;
36185;SDS011;22228;53.222;7.446;2023-08-06T11:41:01;0.80;;;0.80;;
36185;SDS011;22228;53.222;7.446;2023-08-06T11:43:22;0.87;;;0.87;;
36185;SDS011;22228;53.222;7.446;2023-08-06T11:45:42;0.80;;;0.80;;
36185;SDS011;22228;53.222;7.446;2023-08-06T11:48:03;2.63;;;0.93;;
36185;SDS011;22228;53.222;7.446;2023-08-06T11:50:25;0.90;;;0.90;;
36185;SDS011;22228;53.222;7.446;2023-08-06T11:52:46;0.90;;;0.90;;
36185;SDS011;22228;53.222;7.446;2023-08-06T11:55:07;0.90;;;0.90;;
36185;SDS011;22228;53.222;7.446;2023-08-06T11:57:29;0.83;;;0.83;;
36185;SDS011;22228;53.222;7.446;2023-08-06T11:59:54;1.00;;;1.00;;
36185;SDS011;22228;53.222;7.446;2023-08-06T12:02:14;1.17;;;1.00;;
36185;SDS011;22228;53.222;7.446;2023-08-06T12:07:27;1.83;;;0.87;;
36185;SDS011;22228;53.222;7.446;2023-08-06T12:09:50;1.00;;;1.00;;
36185;SDS011;22228;53.222;7.446;2023-08-06T12:12:11;1.57;;;0.77;;
36185;SDS011;22228;53.222;7.446;2023-08-06T12:14:31;1.43;;;0.80;;
36185;SDS011;22228;53.222;7.446;2023-08-06T12:16:52;0.80;;;0.80;;
36185;SDS011;22228;53.222;7.446;2023-08-06T12:19:13;0.70;;;0.70;;
36185;SDS011;22228;53.222;7.446;2023-08-06T12:21:33;1.00;;;0.90;;
36185;SDS011;22228;53.222;7.446;2023-08-06T12:23:55;1.00;;;1.00;;
36185;SDS011;22228;53.222;7.446;2023-08-06T12:26:16;2.87;;;1.20;;
36185;SDS011;22228;53.222;7.446;2023-08-06T12:28:36;1.10;;;1.00;;
36185;SDS011;22228;53.222;7.446;2023-08-06T12:30:57;1.20;;;1.10;;
36185;SDS011;22228;53.222;7.446;2023-08-06T12:33:18;1.30;;;1.10;;
36185;SDS011;22228;53.222;7.446;2023-08-06T12:35:39;1.00;;;0.90;;
36185;SDS011;22228;53.222;7.446;2023-08-06T12:37:59;1.00;;;1.00;;
36185;SDS011;22228;53.222;7.446;2023-08-06T12:40:21;2.00;;;1.00;;
36185;SDS011;22228;53.222;7.446;2023-08-06T12:42:42;1.20;;;1.00;;
36185;SDS011;22228;53.222;7.446;2023-08-06T12:45:02;0.80;;;0.80;;
36185;SDS011;22228;53.222;7.446;2023-08-06T12:47:23;1.17;;;0.80;;
36185;SDS011;22228;53.222;7.446;2023-08-06T12:49:45;1.20;;;0.90;;
36185;SDS011;22228;53.222;7.446;2023-08-06T12:52:05;0.83;;;0.80;;
36185;SDS011;22228;53.222;7.446;2023-08-06T12:54:28;0.90;;;0.90;;
36185;SDS011;22228;53.222;7.446;2023-08-06T12:56:50;1.87;;;0.93;;
36185;SDS011;22228;53.222;7.446;2023-08-06T12:59:10;0.80;;;0.80;;
36185;SDS011;22228;53.222;7.446;2023-08-06T13:01:31;2.00;;;0.90;;
36185;SDS011;22228;53.222;7.446;2023-08-06T13:03:51;1.33;;;0.80;;
36185;SDS011;22228;53.222;7.446;2023-08-06T13:06:12;1.00;;;0.80;;
36185;SDS011;22228;53.222;7.446;2023-08-06T13:08:32;0.90;;;0.90;;
36185;SDS011;22228;53.222;7.446;2023-08-06T13:10:53;0.83;;;0.83;;
36185;SDS011;22228;53.222;7.446;2023-08-06T13:13:14;0.90;;;0.90;;
36185;SDS011;22228;53.222;7.446;2023-08-06T13:15:35;0.90;;;0.90;;
36185;SDS011;22228;53.222;7.446;2023-08-06T13:17:55;1.40;;;0.93;;
36185;SDS011;22228;53.222;7.446;2023-08-06T13:20:16;0.80;;;0.80;;
36185;SDS011;22228;53.222;7.446;2023-08-06T13:22:38;1.07;;;0.90;;
36185;SDS011;22228;53.222;7.446;2023-08-06T13:24:58;1.07;;;0.80;;
36185;SDS011;22228;53.222;7.446;2023-08-06T13:27:19;1.50;;;0.80;;
36185;SDS011;22228;53.222;7.446;2023-08-06T13:29:41;0.80;;;0.80;;
36185;SDS011;22228;53.222;7.446;2023-08-06T13:32:01;0.60;;;0.60;;
36185;SDS011;22228;53.222;7.446;2023-08-06T13:34:22;0.70;;;0.70;;
36185;SDS011;22228;53.222;7.446;2023-08-06T13:36:42;1.87;;;0.90;;
36185;SDS011;22228;53.222;7.446;2023-08-06T13:39:03;1.43;;;0.70;;
36185;SDS011;22228;53.222;7.446;2023-08-06T13:41:24;1.33;;;0.80;;
36185;SDS011;22228;53.222;7.446;2023-08-06T13:43:44;1.37;;;0.83;;
36185;SDS011;22228;53.222;7.446;2023-08-06T13:46:06;1.40;;;0.83;;
36185;SDS011;22228;53.222;7.446;2023-08-06T13:48:27;0.80;;;0.80;;
36185;SDS011;22228;53.222;7.446;2023-08-06T13:50:48;0.80;;;0.80;;
36185;SDS011;22228;53.222;7.446;2023-08-06T13:53:08;1.00;;;0.87;;
36185;SDS011;22228;53.222;7.446;2023-08-06T13:55:29;0.70;;;0.70;;
36185;SDS011;22228;53.222;7.446;2023-08-06T13:57:50;2.40;;;0.80;;
36185;SDS011;22228;53.222;7.446;2023-08-06T14:00:11;0.97;;;0.97;;
36185;SDS011;22228;53.222;7.446;2023-08-06T14:02:33;1.00;;;1.00;;
36185;SDS011;22228;53.222;7.446;2023-08-06T14:04:54;0.80;;;0.80;;
36185;SDS011;22228;53.222;7.446;2023-08-06T14:07:14;0.60;;;0.60;;
36185;SDS011;22228;53.222;7.446;2023-08-06T14:09:35;1.10;;;0.80;;
36185;SDS011;22228;53.222;7.446;2023-08-06T14:11:56;0.80;;;0.80;;
36185;SDS011;22228;53.222;7.446;2023-08-06T14:14:17;0.70;;;0.70;;
36185;SDS011;22228;53.222;7.446;2023-08-06T14:16:37;1.60;;;0.80;;
36185;SDS011;22228;53.222;7.446;2023-08-06T14:18:59;0.87;;;0.60;;
36185;SDS011;22228;53.222;7.446;2023-08-06T14:21:20;0.70;;;0.70;;
36185;SDS011;22228;53.222;7.446;2023-08-06T14:23:40;0.80;;;0.80;;
36185;SDS011;22228;53.222;7.446;2023-08-06T14:26:01;1.33;;;0.80;;
36185;SDS011;22228;53.222;7.446;2023-08-06T14:28:22;1.07;;;0.73;;
36185;SDS011;22228;53.222;7.446;2023-08-06T14:30:42;1.17;;;0.80;;
36185;SDS011;22228;53.222;7.446;2023-08-06T14:33:03;0.70;;;0.70;;
36185;SDS011;22228;53.222;7.446;2023-08-06T14:35:25;1.13;;;0.80;;
36185;SDS011;22228;53.222;7.446;2023-08-06T14:37:45;0.93;;;0.70;;
36185;SDS011;22228;53.222;7.446;2023-08-06T14:40:06;0.70;;;0.60;;
36185;SDS011;22228;53.222;7.446;2023-08-06T14:42:27;0.80;;;0.60;;
36185;SDS011;22228;53.222;7.446;2023-08-06T14:44:48;0.70;;;0.70;;
36185;SDS011;22228;53.222;7.446;2023-08-06T14:47:09;1.37;;;0.90;;
36185;SDS011;22228;53.222;7.446;2023-08-06T14:49:29;0.70;;;0.70;;
36185;SDS011;22228;53.222;7.446;2023-08-06T14:51:51;0.70;;;0.70;;
36185;SDS011;22228;53.222;7.446;2023-08-06T14:54:11;1.60;;;0.70;;
36185;SDS011;22228;53.222;7.446;2023-08-06T14:56:32;0.80;;;0.80;;
36185;SDS011;22228;53.222;7.446;2023-08-06T14:58:52;1.40;;;0.80;;
36185;SDS011;22228;53.222;7.446;2023-08-06T15:01:13;1.20;;;1.10;;
36185;SDS011;22228;53.222;7.446;2023-08-06T15:03:33;1.43;;;0.90;;
36185;SDS011;22228;53.222;7.446;2023-08-06T15:05:54;1.00;;;0.80;;
36185;SDS011;22228;53.222;7.446;2023-08-06T15:08:16;0.80;;;0.80;;
36185;SDS011;22228;53.222;7.446;2023-08-06T15:10:37;0.97;;;0.60;;
36185;SDS011;22228;53.222;7.446;2023-08-06T15:12:57;0.90;;;0.90;;
36185;SDS011;22228;53.222;7.446;2023-08-06T15:15:18;1.07;;;0.60;;
36185;SDS011;22228;53.222;7.446;2023-08-06T15:17:38;0.70;;;0.70;;
36185;SDS011;22228;53.222;7.446;2023-08-06T15:19:59;0.57;;;0.57;;
36185;SDS011;22228;53.222;7.446;2023-08-06T15:22:19;0.70;;;0.70;;
36185;SDS011;22228;53.222;7.446;2023-08-06T15:24:41;1.13;;;0.70;;
36185;SDS011;22228;53.222;7.446;2023-08-06T15:27:02;0.93;;;0.80;;
36185;SDS011;22228;53.222;7.446;2023-08-06T15:29:23;0.60;;;0.60;;
36185;SDS011;22228;53.222;7.446;2023-08-06T15:31:44;0.60;;;0.60;;
36185;SDS011;22228;53.222;7.446;2023-08-06T15:34:04;0.60;;;0.57;;
36185;SDS011;22228;53.222;7.446;2023-08-06T15:36:25;0.67;;;0.67;;
36185;SDS011;22228;53.222;7.446;2023-08-06T15:38:45;0.83;;;0.63;;
36185;SDS011;22228;53.222;7.446;2023-08-06T15:41:07;0.80;;;0.73;;
36185;SDS011;22228;53.222;7.446;2023-08-06T15:43:28;1.93;;;1.00;;
36185;SDS011;22228;53.222;7.446;2023-08-06T15:45:48;0.80;;;0.80;;
36185;SDS011;22228;53.222;7.446;2023-08-06T15:48:08;0.87;;;0.87;;
36185;SDS011;22228;53.222;7.446;2023-08-06T15:50:29;0.97;;;0.80;;
36185;SDS011;22228;53.222;7.446;2023-08-06T15:52:50;1.63;;;0.97;;
36185;SDS011;22228;53.222;7.446;2023-08-06T15:55:10;0.70;;;0.70;;
36185;SDS011;22228;53.222;7.446;2023-08-06T15:57:32;1.10;;;0.80;;
36185;SDS011;22228;53.222;7.446;2023-08-06T15:59:53;1.43;;;0.87;;
36185;SDS011;22228;53.222;7.446;2023-08-06T16:02:13;0.80;;;0.80;;
36185;SDS011;22228;53.222;7.446;2023-08-06T16:04:34;1.50;;;0.70;;
36185;SDS011;22228;53.222;7.446;2023-08-06T16:06:55;1.00;;;0.90;;
36185;SDS011;22228;53.222;7.446;2023-08-06T16:09:15;0.93;;;0.90;;
36185;SDS011;22228;53.222;7.446;2023-08-06T16:11:36;0.80;;;0.80;;
36185;SDS011;22228;53.222;7.446;2023-08-06T16:13:57;0.87;;;0.87;;
36185;SDS011;22228;53.222;7.446;2023-08-06T16:16:18;1.67;;;0.80;;
36185;SDS011;22228;53.222;7.446;2023-08-06T16:18:39;0.80;;;0.80;;
36185;SDS011;22228;53.222;7.446;2023-08-06T16:21:00;2.27;;;0.90;;
36185;SDS011;22228;53.222;7.446;2023-08-06T16:23:21;4.10;;;1.20;;
36185;SDS011;22228;53.222;7.446;2023-08-06T16:25:42;0.90;;;0.90;;
36185;SDS011;22228;53.222;7.446;2023-08-06T16:28:06;1.03;;;0.90;;
36185;SDS011;22228;53.222;7.446;2023-08-06T16:30:30;1.10;;;0.90;;
36185;SDS011;22228;53.222;7.446;2023-08-06T16:32:51;2.30;;;1.00;;
36185;SDS011;22228;53.222;7.446;2023-08-06T16:35:12;2.83;;;0.90;;
36185;SDS011;22228;53.222;7.446;2023-08-06T16:37:33;0.90;;;0.90;;
36185;SDS011;22228;53.222;7.446;2023-08-06T16:39:54;0.80;;;0.80;;
36185;SDS011;22228;53.222;7.446;2023-08-06T16:42:14;1.07;;;0.97;;
36185;SDS011;22228;53.222;7.446;2023-08-06T16:44:35;0.90;;;0.90;;
36185;SDS011;22228;53.222;7.446;2023-08-06T16:46:57;1.93;;;0.97;;
36185;SDS011;22228;53.222;7.446;2023-08-06T16:49:19;1.13;;;0.90;;
36185;SDS011;22228;53.222;7.446;2023-08-06T16:51:39;0.80;;;0.80;;
36185;SDS011;22228;53.222;7.446;2023-08-06T16:54:00;1.57;;;1.07;;